createdAt,value
2022-11-06T00:00:00.311Z,0.00
2022-11-06T00:01:00.301Z,0.00
2022-11-06T00:02:00.351Z,0.00
2022-11-06T00:03:00.307Z,0.00
2022-11-06T00:04:00.274Z,0.00
2022-11-06T00:05:00.255Z,0.00
2022-11-06T00:06:00.251Z,0.00
2022-11-06T00:07:00.253Z,0.00
2022-11-06T00:08:00.251Z,0.00
2022-11-06T00:09:00.206Z,0.00
2022-11-06T00:10:00.191Z,0.00
2022-11-06T00:11:00.203Z,0.00
2022-11-06T00:12:00.172Z,0.00
2022-11-06T00:13:00.162Z,0.00
2022-11-06T00:14:00.161Z,0.00
2022-11-06T00:15:00.142Z,0.00
2022-11-06T00:16:00.151Z,0.00
2022-11-06T00:17:00.125Z,0.00
2022-11-06T00:18:00.113Z,0.00
2022-11-06T00:19:00.104Z,0.00
2022-11-06T00:20:00.102Z,0.00
2022-11-06T00:21:00.103Z,0.00
2022-11-06T00:22:00.091Z,0.00
2022-11-06T00:23:00.083Z,0.00
2022-11-06T00:24:00.060Z,0.00
2022-11-06T00:25:00.034Z,0.00
2022-11-06T00:26:00.034Z,0.00
2022-11-06T00:27:00.015Z,0.00
2022-11-06T00:28:00.014Z,0.00
2022-11-06T00:28:59.993Z,0.00
2022-11-06T00:29:59.998Z,0.00
2022-11-06T00:30:59.983Z,0.00
2022-11-06T00:31:59.964Z,0.00
2022-11-06T00:32:59.947Z,0.00
2022-11-06T00:33:59.935Z,0.00
2022-11-06T00:34:59.924Z,0.00
2022-11-06T00:35:59.925Z,0.00
2022-11-06T00:36:59.895Z,0.00
2022-11-06T00:37:59.895Z,0.00
2022-11-06T00:38:59.886Z,0.00
2022-11-06T00:39:59.873Z,0.00
2022-11-06T00:40:59.866Z,0.00
2022-11-06T00:41:59.856Z,0.00
2022-11-06T00:42:59.837Z,0.00
2022-11-06T00:43:59.857Z,0.00
2022-11-06T00:44:59.817Z,0.00
2022-11-06T00:45:59.816Z,0.00
2022-11-06T00:46:59.799Z,0.00
2022-11-06T00:47:59.791Z,0.00
2022-11-06T00:48:59.785Z,0.00
2022-11-06T00:49:59.770Z,0.00
2022-11-06T00:50:59.766Z,0.00
2022-11-06T00:51:59.739Z,0.00
2022-11-06T00:52:59.739Z,0.00
2022-11-06T00:53:59.729Z,0.00
2022-11-06T00:54:59.706Z,0.00
2022-11-06T00:55:59.717Z,0.00
2022-11-06T00:56:59.695Z,0.00
2022-11-06T00:57:59.678Z,0.00
2022-11-06T00:58:59.670Z,0.00
2022-11-06T00:59:59.677Z,0.00
2022-11-06T01:00:59.640Z,0.00
2022-11-06T01:01:59.776Z,0.00
2022-11-06T01:02:59.705Z,0.00
2022-11-06T01:03:59.611Z,0.00
2022-11-06T01:04:59.620Z,0.00
2022-11-06T01:05:59.602Z,0.00
2022-11-06T01:06:59.588Z,0.00
2022-11-06T01:07:59.579Z,0.00
2022-11-06T01:08:59.564Z,0.00
2022-11-06T01:09:59.571Z,0.00
2022-11-06T01:10:59.573Z,0.00
2022-11-06T01:12:15.046Z,0.00
2022-11-06T01:13:00.510Z,0.00
2022-11-06T01:13:59.542Z,0.00
2022-11-06T01:14:59.516Z,0.00
2022-11-06T01:15:59.523Z,0.00
2022-11-06T01:16:59.499Z,0.00
2022-11-06T01:17:59.462Z,0.00
2022-11-06T01:18:59.471Z,0.00
2022-11-06T01:19:59.552Z,0.00
2022-11-06T01:20:59.455Z,0.00
2022-11-06T01:21:59.442Z,0.00
2022-11-06T01:22:59.401Z,0.00
2022-11-06T01:23:59.405Z,0.00
2022-11-06T01:24:59.437Z,0.00
2022-11-06T01:25:59.397Z,0.00
2022-11-06T01:28:00.383Z,0.00
2022-11-06T01:28:59.384Z,0.00
2022-11-06T01:29:59.352Z,0.00
2022-11-06T01:30:59.321Z,0.00
2022-11-06T01:31:59.314Z,0.00
2022-11-06T01:32:59.318Z,0.00
2022-11-06T01:33:59.302Z,0.00
2022-11-06T01:34:59.387Z,0.00
2022-11-06T01:35:59.264Z,0.00
2022-11-06T01:36:59.272Z,0.00
2022-11-06T01:37:59.245Z,0.00
2022-11-06T01:38:59.253Z,0.00
2022-11-06T01:39:59.214Z,0.00
2022-11-06T01:40:59.213Z,0.00
2022-11-06T01:41:59.207Z,0.00
2022-11-06T01:42:59.214Z,0.00
2022-11-06T01:43:59.198Z,0.00
2022-11-06T01:44:59.179Z,0.00
2022-11-06T01:45:59.154Z,0.00
2022-11-06T01:46:59.165Z,0.00
2022-11-06T01:47:59.139Z,0.00
2022-11-06T01:48:59.135Z,0.00
2022-11-06T01:49:59.115Z,0.00
2022-11-06T01:50:59.115Z,0.00
2022-11-06T01:51:59.086Z,0.00
2022-11-06T01:52:59.086Z,0.00
2022-11-06T01:53:59.087Z,0.00
2022-11-06T01:54:59.068Z,0.00
2022-11-06T01:55:59.046Z,0.00
2022-11-06T01:56:59.049Z,0.00
2022-11-06T01:57:59.025Z,0.00
2022-11-06T01:58:59.046Z,0.00
2022-11-06T01:59:59.008Z,0.00
2022-11-06T02:00:58.996Z,0.00
2022-11-06T02:01:59.122Z,0.00
2022-11-06T02:02:59.172Z,0.00
2022-11-06T02:03:58.992Z,0.00
2022-11-06T02:04:58.977Z,0.00
2022-11-06T02:05:58.954Z,0.00
2022-11-06T02:06:58.936Z,0.00
2022-11-06T02:07:58.927Z,0.00
2022-11-06T02:08:58.917Z,0.00
2022-11-06T02:09:58.907Z,0.00
2022-11-06T02:10:58.896Z,0.00
2022-11-06T02:11:58.879Z,0.00
2022-11-06T02:12:58.875Z,0.00
2022-11-06T02:13:58.866Z,0.00
2022-11-06T02:14:58.876Z,0.00
2022-11-06T02:15:58.828Z,0.00
2022-11-06T02:16:58.840Z,0.00
2022-11-06T02:17:58.823Z,0.00
2022-11-06T02:18:58.817Z,0.00
2022-11-06T02:19:58.816Z,0.00
2022-11-06T02:20:58.789Z,0.00
2022-11-06T02:21:58.795Z,0.00
2022-11-06T02:22:58.769Z,0.00
2022-11-06T02:23:58.757Z,0.00
2022-11-06T02:24:58.749Z,0.00
2022-11-06T02:25:58.737Z,0.00
2022-11-06T02:26:58.724Z,0.00
2022-11-06T02:27:58.710Z,0.00
2022-11-06T02:28:58.699Z,0.00
2022-11-06T02:29:58.713Z,0.00
2022-11-06T02:30:58.677Z,0.00
2022-11-06T02:31:58.680Z,0.00
2022-11-06T02:32:58.659Z,0.00
2022-11-06T02:33:58.640Z,0.00
2022-11-06T02:34:58.730Z,0.00
2022-11-06T02:35:58.622Z,0.00
2022-11-06T02:36:58.613Z,0.00
2022-11-06T02:37:58.601Z,0.00
2022-11-06T02:38:58.593Z,0.00
2022-11-06T02:39:58.598Z,0.00
2022-11-06T02:40:58.569Z,0.00
2022-11-06T02:41:58.572Z,0.00
2022-11-06T02:42:58.540Z,0.00
2022-11-06T02:43:59.281Z,0.00
2022-11-06T02:44:58.550Z,0.00
2022-11-06T02:45:58.523Z,0.00
2022-11-06T02:46:58.504Z,0.00
2022-11-06T02:47:58.519Z,0.00
2022-11-06T02:48:58.503Z,0.00
2022-11-06T02:49:58.483Z,0.00
2022-11-06T02:50:58.462Z,0.00
2022-11-06T02:51:58.475Z,0.00
2022-11-06T02:52:58.453Z,0.00
2022-11-06T02:53:58.461Z,0.00
2022-11-06T02:54:58.422Z,0.00
2022-11-06T02:55:58.411Z,0.00
2022-11-06T02:56:58.404Z,0.00
2022-11-06T02:57:58.382Z,0.00
2022-11-06T02:58:58.372Z,0.00
2022-11-06T02:59:58.384Z,0.00
2022-11-06T03:00:58.343Z,0.00
2022-11-06T03:01:58.508Z,0.00
2022-11-06T03:02:58.483Z,0.00
2022-11-06T03:03:58.313Z,0.00
2022-11-06T03:04:58.324Z,0.00
2022-11-06T03:05:58.304Z,0.00
2022-11-06T03:06:58.283Z,0.00
2022-11-06T03:07:58.325Z,0.00
2022-11-06T03:08:58.412Z,0.00
2022-11-06T03:09:58.429Z,0.00
2022-11-06T03:10:58.333Z,0.00
2022-11-06T03:11:58.255Z,0.00
2022-11-06T03:12:58.331Z,0.00
2022-11-06T03:13:58.218Z,0.00
2022-11-06T03:14:58.236Z,0.00
2022-11-06T03:15:58.194Z,0.00
2022-11-06T03:16:58.184Z,0.00
2022-11-06T03:17:58.177Z,0.00
2022-11-06T03:18:58.173Z,0.00
2022-11-06T03:19:58.163Z,0.00
2022-11-06T03:20:58.136Z,0.00
2022-11-06T03:21:58.124Z,0.00
2022-11-06T03:22:58.113Z,0.00
2022-11-06T03:23:58.105Z,0.00
2022-11-06T03:24:58.106Z,0.00
2022-11-06T03:25:58.102Z,0.00
2022-11-06T03:26:58.076Z,0.00
2022-11-06T03:27:58.057Z,0.00
2022-11-06T03:28:58.047Z,0.00
2022-11-06T03:29:58.068Z,0.00
2022-11-06T03:30:58.037Z,0.00
2022-11-06T03:31:58.018Z,0.00
2022-11-06T03:32:58.017Z,0.00
2022-11-06T03:33:57.998Z,0.00
2022-11-06T03:34:57.998Z,0.00
2022-11-06T03:35:57.986Z,0.00
2022-11-06T03:36:57.986Z,0.00
2022-11-06T03:37:57.959Z,0.00
2022-11-06T03:38:57.938Z,0.00
2022-11-06T03:39:57.948Z,0.00
2022-11-06T03:40:57.923Z,0.00
2022-11-06T03:41:57.999Z,0.00
2022-11-06T03:42:57.890Z,0.00
2022-11-06T03:43:57.910Z,0.00
2022-11-06T03:44:57.958Z,0.00
2022-11-06T03:45:57.868Z,0.00
2022-11-06T03:46:57.856Z,0.00
2022-11-06T03:47:57.850Z,0.00
2022-11-06T03:48:57.842Z,0.00
2022-11-06T03:49:57.829Z,0.00
2022-11-06T03:50:57.810Z,0.00
2022-11-06T03:51:57.800Z,0.00
2022-11-06T03:52:57.789Z,0.00
2022-11-06T03:53:57.949Z,0.00
2022-11-06T03:54:57.788Z,0.00
2022-11-06T03:55:57.760Z,0.00
2022-11-06T03:56:57.750Z,0.00
2022-11-06T03:57:57.741Z,0.00
2022-11-06T03:58:57.838Z,0.00
2022-11-06T03:59:57.721Z,0.00
2022-11-06T04:00:57.700Z,0.00
2022-11-06T04:01:57.828Z,0.00
2022-11-06T04:02:57.849Z,0.00
2022-11-06T04:03:57.692Z,0.00
2022-11-06T04:04:57.666Z,0.00
2022-11-06T04:05:57.656Z,0.00
2022-11-06T04:06:57.644Z,0.00
2022-11-06T04:07:57.632Z,0.00
2022-11-06T04:08:57.633Z,0.00
2022-11-06T04:09:57.612Z,0.00
2022-11-06T04:10:57.651Z,0.00
2022-11-06T04:11:57.596Z,0.00
2022-11-06T04:12:57.574Z,0.00
2022-11-06T04:13:57.574Z,0.00
2022-11-06T04:14:57.557Z,0.00
2022-11-06T04:15:57.551Z,0.00
2022-11-06T04:16:57.535Z,0.00
2022-11-06T04:17:57.532Z,0.00
2022-11-06T04:18:57.515Z,0.00
2022-11-06T04:19:57.514Z,0.00
2022-11-06T04:20:57.486Z,0.00
2022-11-06T04:21:57.485Z,0.00
2022-11-06T04:22:57.468Z,0.00
2022-11-06T04:23:57.527Z,0.00
2022-11-06T04:24:57.443Z,0.00
2022-11-06T04:25:57.441Z,0.00
2022-11-06T04:26:57.426Z,0.00
2022-11-06T04:27:57.415Z,0.00
2022-11-06T04:28:57.418Z,0.00
2022-11-06T04:29:57.395Z,0.00
2022-11-06T04:30:57.376Z,0.00
2022-11-06T04:31:57.390Z,0.00
2022-11-06T04:33:00.319Z,0.00
2022-11-06T04:33:57.432Z,0.00
2022-11-06T04:34:57.359Z,0.00
2022-11-06T04:35:57.327Z,0.00
2022-11-06T04:36:57.326Z,0.00
2022-11-06T04:37:57.307Z,0.00
2022-11-06T04:38:57.315Z,0.00
2022-11-06T04:39:57.276Z,0.00
2022-11-06T04:40:57.291Z,0.00
2022-11-06T04:41:57.274Z,0.00
2022-11-06T04:42:57.257Z,0.00
2022-11-06T04:43:57.249Z,0.00
2022-11-06T04:44:57.240Z,0.00
2022-11-06T04:45:57.218Z,0.00
2022-11-06T04:46:57.217Z,0.00
2022-11-06T04:47:57.201Z,0.00
2022-11-06T04:48:57.199Z,0.00
2022-11-06T04:49:57.203Z,0.00
2022-11-06T04:50:57.176Z,0.00
2022-11-06T04:51:57.159Z,0.00
2022-11-06T04:52:57.150Z,0.00
2022-11-06T04:53:57.150Z,0.00
2022-11-06T04:54:57.127Z,0.00
2022-11-06T04:55:57.109Z,0.00
2022-11-06T04:56:57.110Z,0.00
2022-11-06T04:57:57.089Z,0.00
2022-11-06T04:58:57.099Z,0.00
2022-11-06T04:59:57.081Z,0.00
2022-11-06T05:00:57.112Z,0.00
2022-11-06T05:01:57.098Z,0.00
2022-11-06T05:02:57.061Z,0.00
2022-11-06T05:03:57.043Z,0.00
2022-11-06T05:04:57.018Z,0.00
2022-11-06T05:05:57.010Z,0.00
2022-11-06T05:06:56.998Z,0.00
2022-11-06T05:07:56.990Z,0.00
2022-11-06T05:08:56.992Z,0.00
2022-11-06T05:09:56.961Z,0.00
2022-11-06T05:10:56.961Z,0.00
2022-11-06T05:11:56.954Z,0.00
2022-11-06T05:12:56.931Z,0.00
2022-11-06T05:13:56.974Z,0.00
2022-11-06T05:14:57.076Z,0.00
2022-11-06T05:15:56.891Z,0.00
2022-11-06T05:16:56.902Z,0.00
2022-11-06T05:17:56.883Z,0.00
2022-11-06T05:18:56.871Z,0.00
2022-11-06T05:19:56.862Z,0.00
2022-11-06T05:20:56.874Z,0.00
2022-11-06T05:21:56.836Z,0.00
2022-11-06T05:22:56.831Z,0.00
2022-11-06T05:23:56.820Z,0.00
2022-11-06T05:24:56.803Z,0.00
2022-11-06T05:25:56.783Z,0.00
2022-11-06T05:26:59.536Z,0.00
2022-11-06T05:27:56.764Z,0.00
2022-11-06T05:28:56.773Z,0.00
2022-11-06T05:29:56.754Z,0.00
2022-11-06T05:30:56.734Z,0.00
2022-11-06T05:31:56.728Z,0.00
2022-11-06T05:32:56.714Z,0.00
2022-11-06T05:33:56.714Z,0.00
2022-11-06T05:34:56.703Z,0.00
2022-11-06T05:35:56.735Z,0.00
2022-11-06T05:36:56.697Z,0.00
2022-11-06T05:37:56.674Z,0.00
2022-11-06T05:38:56.664Z,0.00
2022-11-06T05:39:56.634Z,0.00
2022-11-06T05:40:56.635Z,0.00
2022-11-06T05:41:56.614Z,0.00
2022-11-06T05:42:56.615Z,0.00
2022-11-06T05:43:56.633Z,0.00
2022-11-06T05:44:56.597Z,0.00
2022-11-06T05:45:56.575Z,0.00
2022-11-06T05:46:56.584Z,0.00
2022-11-06T05:47:56.564Z,0.00
2022-11-06T05:48:56.589Z,0.00
2022-11-06T05:49:56.535Z,0.00
2022-11-06T05:50:56.525Z,0.00
2022-11-06T05:51:56.510Z,0.00
2022-11-06T05:52:56.524Z,0.00
2022-11-06T05:53:56.566Z,0.00
2022-11-06T05:54:56.477Z,4.00
2022-11-06T05:55:56.467Z,4.00
2022-11-06T05:56:56.458Z,0.00
2022-11-06T05:57:56.448Z,4.00
2022-11-06T05:58:56.459Z,0.00
2022-11-06T05:59:56.429Z,4.00
2022-11-06T06:00:56.415Z,4.00
2022-11-06T06:01:56.452Z,8.00
2022-11-06T06:02:56.492Z,8.00
2022-11-06T06:03:56.388Z,8.00
2022-11-06T06:04:56.380Z,12.00
2022-11-06T06:05:56.360Z,12.00
2022-11-06T06:06:56.348Z,16.00
2022-11-06T06:07:56.345Z,20.00
2022-11-06T06:08:56.349Z,24.00
2022-11-06T06:09:56.322Z,28.00
2022-11-06T06:10:56.310Z,32.00
2022-11-06T06:11:56.299Z,40.00
2022-11-06T06:12:56.289Z,48.00
2022-11-06T06:13:56.313Z,56.00
2022-11-06T06:14:56.270Z,68.00
2022-11-06T06:15:56.251Z,76.00
2022-11-06T06:16:56.267Z,88.00
2022-11-06T06:17:56.236Z,104.00
2022-11-06T06:18:56.249Z,120.00
2022-11-06T06:19:56.209Z,136.00
2022-11-06T06:20:56.201Z,160.00
2022-11-06T06:21:56.182Z,176.00
2022-11-06T06:22:56.184Z,200.00
2022-11-06T06:23:56.219Z,224.00
2022-11-06T06:24:56.201Z,248.00
2022-11-06T06:25:56.141Z,280.00
2022-11-06T06:26:56.143Z,308.00
2022-11-06T06:27:56.120Z,344.00
2022-11-06T06:28:56.142Z,376.00
2022-11-06T06:29:56.102Z,408.00
2022-11-06T06:31:01.217Z,448.00
2022-11-06T06:31:57.122Z,488.00
2022-11-06T06:32:56.074Z,532.00
2022-11-06T06:33:56.070Z,572.00
2022-11-06T06:34:56.086Z,620.00
2022-11-06T06:35:56.033Z,664.00
2022-11-06T06:36:56.040Z,716.00
2022-11-06T06:37:56.023Z,768.00
2022-11-06T06:38:56.042Z,820.00
2022-11-06T06:39:55.992Z,872.00
2022-11-06T06:40:55.984Z,928.00
2022-11-06T06:41:55.966Z,984.00
2022-11-06T06:42:55.963Z,1044.00
2022-11-06T06:43:55.983Z,1108.00
2022-11-06T06:44:55.943Z,1168.00
2022-11-06T06:45:55.924Z,1228.00
2022-11-06T06:46:55.926Z,1292.00
2022-11-06T06:47:55.961Z,1360.00
2022-11-06T06:48:55.905Z,1428.00
2022-11-06T06:49:55.928Z,1496.00
2022-11-06T06:50:55.885Z,1568.00
2022-11-06T06:51:55.944Z,1644.00
2022-11-06T06:52:55.860Z,1712.00
2022-11-06T06:53:55.865Z,1788.00
2022-11-06T06:54:55.835Z,1864.00
2022-11-06T06:55:55.995Z,1948.00
2022-11-06T06:56:55.807Z,2016.00
2022-11-06T06:57:55.797Z,2092.00
2022-11-06T06:58:55.808Z,2172.00
2022-11-06T06:59:55.785Z,2248.00
2022-11-06T07:00:55.838Z,2320.00
2022-11-06T07:01:55.918Z,2392.00
2022-11-06T07:02:55.747Z,2460.00
2022-11-06T07:03:58.721Z,2532.00
2022-11-06T07:04:56.719Z,2620.00
2022-11-06T07:05:55.737Z,2712.00
2022-11-06T07:06:55.701Z,2820.00
2022-11-06T07:07:55.690Z,2916.00
2022-11-06T07:08:55.701Z,3016.00
2022-11-06T07:09:55.667Z,3128.00
2022-11-06T07:10:55.659Z,3216.00
2022-11-06T07:11:55.658Z,3292.00
2022-11-06T07:12:55.637Z,3332.00
2022-11-06T07:13:55.647Z,3388.00
2022-11-06T07:14:55.618Z,3436.00
2022-11-06T07:15:55.607Z,3468.00
2022-11-06T07:16:55.589Z,3492.00
2022-11-06T07:17:55.590Z,3512.00
2022-11-06T07:18:55.588Z,3520.00
2022-11-06T07:19:55.568Z,3552.00
2022-11-06T07:20:55.558Z,3580.00
2022-11-06T07:21:55.540Z,3600.00
2022-11-06T07:22:55.529Z,3612.00
2022-11-06T07:23:55.530Z,3624.00
2022-11-06T07:24:55.501Z,3632.00
2022-11-06T07:25:55.500Z,3652.00
2022-11-06T07:26:55.489Z,3684.00
2022-11-06T07:28:00.342Z,3732.00
2022-11-06T07:28:56.470Z,3780.00
2022-11-06T07:29:55.459Z,3840.00
2022-11-06T07:30:55.458Z,3896.00
2022-11-06T07:31:55.440Z,3932.00
2022-11-06T07:32:55.420Z,3968.00
2022-11-06T07:33:55.428Z,4008.00
2022-11-06T07:34:55.410Z,4060.00
2022-11-06T07:35:55.397Z,4124.00
2022-11-06T07:36:55.386Z,4160.00
2022-11-06T07:37:55.361Z,4188.00
2022-11-06T07:38:55.411Z,4244.00
2022-11-06T07:39:55.351Z,4280.00
2022-11-06T07:40:55.342Z,4336.00
2022-11-06T07:41:55.322Z,4408.00
2022-11-06T07:42:55.311Z,4492.00
2022-11-06T07:43:55.351Z,4572.00
2022-11-06T07:44:55.294Z,4640.00
2022-11-06T07:45:55.281Z,4720.00
2022-11-06T07:46:55.283Z,4828.00
2022-11-06T07:47:59.103Z,4956.00
2022-11-06T07:48:55.258Z,5108.00
2022-11-06T07:49:55.233Z,5272.00
2022-11-06T07:50:55.234Z,5484.00
2022-11-06T07:51:55.214Z,5712.00
2022-11-06T07:52:55.214Z,6000.00
2022-11-06T07:53:55.212Z,6304.00
2022-11-06T07:54:55.188Z,6676.00
2022-11-06T07:55:55.186Z,7016.00
2022-11-06T07:56:55.165Z,7332.00
2022-11-06T07:57:55.143Z,7540.00
2022-11-06T07:58:55.157Z,7676.00
2022-11-06T07:59:55.135Z,7832.00
2022-11-06T08:00:55.191Z,8000.00
2022-11-06T08:01:55.244Z,8100.00
2022-11-06T08:02:55.104Z,8072.00
2022-11-06T08:03:55.097Z,7860.00
2022-11-06T08:04:55.084Z,7548.00
2022-11-06T08:05:55.120Z,7148.00
2022-11-06T08:06:55.056Z,6508.00
2022-11-06T08:07:55.044Z,5952.00
2022-11-06T08:08:58.867Z,5404.00
2022-11-06T08:09:55.018Z,5020.00
2022-11-06T08:10:55.020Z,4856.00
2022-11-06T08:11:55.006Z,4868.00
2022-11-06T08:12:54.988Z,4872.00
2022-11-06T08:13:54.987Z,4956.00
2022-11-06T08:14:55.027Z,5440.00
2022-11-06T08:15:54.968Z,5572.00
2022-11-06T08:16:54.958Z,5552.00
2022-11-06T08:17:54.938Z,5524.00
2022-11-06T08:18:54.973Z,5508.00
2022-11-06T08:19:54.908Z,5496.00
2022-11-06T08:20:54.898Z,5496.00
2022-11-06T08:21:54.888Z,5520.00
2022-11-06T08:22:54.905Z,5552.00
2022-11-06T08:23:54.888Z,5584.00
2022-11-06T08:24:54.858Z,5620.00
2022-11-06T08:25:54.852Z,5668.00
2022-11-06T08:26:54.941Z,5736.00
2022-11-06T08:27:54.829Z,5820.00
2022-11-06T08:28:54.851Z,5964.00
2022-11-06T08:29:54.799Z,6096.00
2022-11-06T08:30:54.799Z,6180.00
2022-11-06T08:31:54.780Z,6240.00
2022-11-06T08:32:54.772Z,6308.00
2022-11-06T08:33:54.772Z,6448.00
2022-11-06T08:34:54.868Z,6756.00
2022-11-06T08:35:54.742Z,7080.00
2022-11-06T08:36:54.731Z,7188.00
2022-11-06T08:37:54.711Z,7248.00
2022-11-06T08:38:54.731Z,7344.00
2022-11-06T08:39:54.693Z,7412.00
2022-11-06T08:40:54.694Z,7428.00
2022-11-06T08:41:54.671Z,7520.00
2022-11-06T08:42:54.742Z,7500.00
2022-11-06T08:43:54.672Z,7492.00
2022-11-06T08:44:54.664Z,7428.00
2022-11-06T08:45:54.629Z,7292.00
2022-11-06T08:46:54.622Z,7120.00
2022-11-06T08:47:54.614Z,6948.00
2022-11-06T08:48:54.662Z,6824.00
2022-11-06T08:49:54.585Z,6716.00
2022-11-06T08:50:54.667Z,6620.00
2022-11-06T08:51:54.565Z,6576.00
2022-11-06T08:52:54.560Z,6572.00
2022-11-06T08:53:54.818Z,6616.00
2022-11-06T08:54:54.534Z,6652.00
2022-11-06T08:55:54.524Z,6676.00
2022-11-06T08:56:54.566Z,6692.00
2022-11-06T08:57:54.501Z,6720.00
2022-11-06T08:58:55.889Z,6760.00
2022-11-06T08:59:54.487Z,6796.00
2022-11-06T09:00:54.540Z,6712.00
2022-11-06T09:01:54.615Z,6324.00
2022-11-06T09:02:54.445Z,6480.00
2022-11-06T09:03:54.443Z,6592.00
2022-11-06T09:04:54.452Z,6420.00
2022-11-06T09:05:54.417Z,6520.00
2022-11-06T09:06:54.465Z,6440.00
2022-11-06T09:07:54.386Z,7004.00
2022-11-06T09:08:54.449Z,7300.00
2022-11-06T09:09:54.367Z,7460.00
2022-11-06T09:10:58.318Z,7696.00
2022-11-06T09:11:54.350Z,7732.00
2022-11-06T09:12:54.382Z,7780.00
2022-11-06T09:13:54.449Z,8344.00
2022-11-06T09:14:55.168Z,9392.00
2022-11-06T09:15:54.308Z,10228.00
2022-11-06T09:16:54.299Z,10208.00
2022-11-06T09:17:54.299Z,10692.00
2022-11-06T09:18:54.341Z,12116.00
2022-11-06T09:19:54.275Z,13192.00
2022-11-06T09:20:54.269Z,13392.00
2022-11-06T09:21:55.036Z,14660.00
2022-11-06T09:22:54.250Z,14252.00
2022-11-06T09:23:54.234Z,14640.00
2022-11-06T09:25:09.248Z,16144.00
2022-11-06T09:25:55.203Z,15496.00
2022-11-06T09:26:54.192Z,16264.00
2022-11-06T09:27:58.802Z,17408.00
2022-11-06T09:28:55.189Z,16920.00
2022-11-06T09:29:54.161Z,15784.00
2022-11-06T09:30:54.152Z,15396.00
2022-11-06T09:31:54.144Z,15456.00
2022-11-06T09:32:54.129Z,15200.00
2022-11-06T09:33:54.103Z,15352.00
2022-11-06T09:34:54.121Z,15540.00
2022-11-06T09:35:54.092Z,15780.00
2022-11-06T09:36:54.252Z,16104.00
2022-11-06T09:37:54.072Z,16568.00
2022-11-06T09:38:54.075Z,17344.00
2022-11-06T09:39:54.043Z,18208.00
2022-11-06T09:40:54.048Z,18976.00
2022-11-06T09:41:54.031Z,19616.00
2022-11-06T09:42:54.014Z,20192.00
2022-11-06T09:44:09.483Z,21792.00
2022-11-06T09:44:55.005Z,22240.00
2022-11-06T09:45:55.047Z,23232.00
2022-11-06T09:46:54.088Z,23424.00
2022-11-06T09:47:53.976Z,22816.00
2022-11-06T09:48:53.986Z,22272.00
2022-11-06T09:49:53.960Z,21472.00
2022-11-06T09:50:53.947Z,20640.00
2022-11-06T09:51:53.934Z,19872.00
2022-11-06T09:52:53.926Z,19392.00
2022-11-06T09:53:53.920Z,19072.00
2022-11-06T09:54:57.490Z,18912.00
2022-11-06T09:55:54.887Z,18592.00
2022-11-06T09:56:53.877Z,18336.00
2022-11-06T09:57:53.857Z,17408.00
2022-11-06T09:58:53.849Z,16160.00
2022-11-06T09:59:53.830Z,14860.00
2022-11-06T10:00:53.914Z,15856.00
2022-11-06T10:01:53.927Z,33728.00
2022-11-06T10:02:53.904Z,63552.00
2022-11-06T10:03:53.798Z,36800.00
2022-11-06T10:04:53.790Z,78944.00
2022-11-06T10:05:53.760Z,76800.00
2022-11-06T10:06:53.766Z,77568.00
2022-11-06T10:07:53.748Z,38048.00
2022-11-06T10:08:53.891Z,34688.00
2022-11-06T10:09:53.720Z,22016.00
2022-11-06T10:10:53.711Z,27232.00
2022-11-06T10:11:53.703Z,43648.00
2022-11-06T10:12:53.720Z,74208.00
2022-11-06T10:13:53.692Z,38400.00
2022-11-06T10:14:53.683Z,53824.00
2022-11-06T10:15:53.655Z,59136.00
2022-11-06T10:16:53.733Z,27488.00
2022-11-06T10:17:53.653Z,46304.00
2022-11-06T10:18:53.820Z,76608.00
2022-11-06T10:19:53.634Z,45216.00
2022-11-06T10:20:53.704Z,30080.00
2022-11-06T10:21:53.645Z,27264.00
2022-11-06T10:22:53.587Z,24608.00
2022-11-06T10:23:53.587Z,22400.00
2022-11-06T10:24:53.643Z,21856.00
2022-11-06T10:25:53.546Z,21600.00
2022-11-06T10:26:53.553Z,21216.00
2022-11-06T10:27:53.550Z,22144.00
2022-11-06T10:28:53.548Z,22624.00
2022-11-06T10:29:53.566Z,21696.00
2022-11-06T10:30:53.495Z,21056.00
2022-11-06T10:31:53.490Z,20960.00
2022-11-06T10:32:53.529Z,21312.00
2022-11-06T10:33:53.460Z,21600.00
2022-11-06T10:34:53.459Z,20864.00
2022-11-06T10:35:53.449Z,20128.00
2022-11-06T10:36:53.429Z,19168.00
2022-11-06T10:37:53.420Z,18240.00
2022-11-06T10:38:53.413Z,17472.00
2022-11-06T10:39:53.400Z,16928.00
2022-11-06T10:40:53.451Z,16608.00
2022-11-06T10:41:53.380Z,16600.00
2022-11-06T10:42:53.361Z,17024.00
2022-11-06T10:43:53.368Z,17184.00
2022-11-06T10:44:53.345Z,17280.00
2022-11-06T10:45:53.332Z,17120.00
2022-11-06T10:46:53.315Z,16736.00
2022-11-06T10:47:53.313Z,16096.00
2022-11-06T10:48:53.323Z,15592.00
2022-11-06T10:49:53.292Z,15172.00
2022-11-06T10:50:53.284Z,14852.00
2022-11-06T10:51:53.264Z,14632.00
2022-11-06T10:52:53.254Z,14548.00
2022-11-06T10:53:53.273Z,14660.00
2022-11-06T10:54:53.236Z,15008.00
2022-11-06T10:55:53.232Z,15536.00
2022-11-06T10:56:53.239Z,16380.00
2022-11-06T10:57:53.204Z,17472.00
2022-11-06T10:58:53.337Z,18016.00
2022-11-06T10:59:53.186Z,17568.00
2022-11-06T11:00:53.234Z,17248.00
2022-11-06T11:01:53.252Z,16800.00
2022-11-06T11:02:53.146Z,16092.00
2022-11-06T11:03:53.147Z,15580.00
2022-11-06T11:04:57.669Z,15324.00
2022-11-06T11:05:54.108Z,15168.00
2022-11-06T11:06:53.239Z,15124.00
2022-11-06T11:07:53.089Z,15076.00
2022-11-06T11:08:53.101Z,15028.00
2022-11-06T11:09:53.060Z,15044.00
2022-11-06T11:11:04.493Z,15128.00
2022-11-06T11:11:54.039Z,15260.00
2022-11-06T11:12:53.140Z,15460.00
2022-11-06T11:13:53.039Z,15672.00
2022-11-06T11:14:53.021Z,15800.00
2022-11-06T11:15:53.011Z,15844.00
2022-11-06T11:16:53.720Z,15824.00
2022-11-06T11:17:52.979Z,15784.00
2022-11-06T11:18:52.979Z,15720.00
2022-11-06T11:19:52.952Z,15672.00
2022-11-06T11:20:53.153Z,15652.00
2022-11-06T11:21:52.932Z,15624.00
2022-11-06T11:22:52.959Z,15480.00
2022-11-06T11:23:52.932Z,15376.00
2022-11-06T11:24:52.902Z,15256.00
2022-11-06T11:25:52.884Z,15088.00
2022-11-06T11:26:52.884Z,14868.00
2022-11-06T11:27:52.864Z,14624.00
2022-11-06T11:28:52.905Z,14352.00
2022-11-06T11:29:52.844Z,13928.00
2022-11-06T11:30:52.833Z,13400.00
2022-11-06T11:31:52.825Z,12964.00
2022-11-06T11:32:52.813Z,12832.00
2022-11-06T11:33:52.838Z,13216.00
2022-11-06T11:34:56.645Z,14000.00
2022-11-06T11:35:52.776Z,15116.00
2022-11-06T11:36:52.865Z,16356.00
2022-11-06T11:37:52.757Z,17504.00
2022-11-06T11:38:52.755Z,18208.00
2022-11-06T11:39:52.736Z,18912.00
2022-11-06T11:40:52.727Z,19392.00
2022-11-06T11:41:52.828Z,19904.00
2022-11-06T11:42:52.697Z,20768.00
2022-11-06T11:43:52.706Z,21952.00
2022-11-06T11:44:52.818Z,23136.00
2022-11-06T11:45:52.659Z,24672.00
2022-11-06T11:46:52.659Z,27680.00
2022-11-06T11:47:52.759Z,29408.00
2022-11-06T11:48:52.641Z,32512.00
2022-11-06T11:49:52.629Z,50240.00
2022-11-06T11:50:52.609Z,70336.00
2022-11-06T11:51:52.597Z,50112.00
2022-11-06T11:52:52.593Z,44992.00
2022-11-06T11:53:52.604Z,68896.00
2022-11-06T11:54:52.560Z,45216.00
2022-11-06T11:55:52.551Z,60256.00
2022-11-06T11:57:08.032Z,54432.00
2022-11-06T11:57:53.533Z,50688.00
2022-11-06T11:58:52.541Z,58976.00
2022-11-06T11:59:52.511Z,66528.00
2022-11-06T12:00:52.712Z,61440.00
2022-11-06T12:01:52.702Z,98752.00
2022-11-06T12:02:52.534Z,101312.00
2022-11-06T12:03:52.635Z,99552.00
2022-11-06T12:04:52.454Z,100704.00
2022-11-06T12:05:52.450Z,93440.00
2022-11-06T12:06:52.465Z,79072.00
2022-11-06T12:07:52.594Z,80928.00
2022-11-06T12:08:52.474Z,76160.00
2022-11-06T12:09:52.421Z,78976.00
2022-11-06T12:10:52.413Z,81696.00
2022-11-06T12:11:52.385Z,85504.00
2022-11-06T12:12:52.396Z,86976.00
2022-11-06T12:13:52.357Z,91072.00
2022-11-06T12:14:52.367Z,22144.00
2022-11-06T12:15:52.336Z,15340.00
2022-11-06T12:16:52.368Z,15192.00
2022-11-06T12:17:52.321Z,16160.00
2022-11-06T12:18:57.623Z,18848.00
2022-11-06T12:19:53.309Z,19872.00
2022-11-06T12:20:52.292Z,27072.00
2022-11-06T12:21:52.320Z,85728.00
2022-11-06T12:22:52.271Z,93824.00
2022-11-06T12:23:52.251Z,80256.00
2022-11-06T12:24:52.260Z,71904.00
2022-11-06T12:25:52.240Z,93824.00
2022-11-06T12:26:52.352Z,98592.00
2022-11-06T12:27:52.202Z,98464.00
2022-11-06T12:28:52.283Z,83520.00
2022-11-06T12:29:52.200Z,88352.00
2022-11-06T12:30:52.182Z,97664.00
2022-11-06T12:31:52.169Z,101920.00
2022-11-06T12:32:52.154Z,97664.00
2022-11-06T12:34:09.871Z,99552.00
2022-11-06T12:34:53.166Z,45856.00